createdAt,value
2018-08-18T00:01:28.864Z,67.85
2018-08-18T00:03:57.104Z,67.91
2018-08-18T00:06:25.304Z,67.65
2018-08-18T00:08:53.659Z,68.02
2018-08-18T00:11:22.473Z,68.08
2018-08-18T00:13:55.804Z,68.60
2018-08-18T00:16:25.096Z,68.50
2018-08-18T00:19:00.184Z,68.14
2018-08-18T00:21:31.216Z,68.46
2018-08-18T00:24:02.237Z,67.96
2018-08-18T00:26:31.153Z,67.90
2018-08-18T00:28:59.364Z,68.62
2018-08-18T00:31:27.573Z,68.07
2018-08-18T00:33:56.220Z,67.92
2018-08-18T00:36:24.452Z,68.32
2018-08-18T00:38:55.140Z,67.98
2018-08-18T00:41:25.101Z,67.65
2018-08-18T00:43:53.517Z,68.24
2018-08-18T00:46:21.753Z,68.34
2018-08-18T00:48:49.986Z,67.56
2018-08-18T00:51:18.408Z,67.83
2018-08-18T00:53:47.252Z,67.87
2018-08-18T00:56:15.474Z,67.92
2018-08-18T00:58:49.308Z,68.15
2018-08-18T01:01:17.724Z,68.23
2018-08-18T01:03:51.205Z,68.85
2018-08-18T01:06:20.856Z,67.90
2018-08-18T01:08:52.324Z,68.88
2018-08-18T01:11:20.598Z,68.46
2018-08-18T01:13:48.936Z,67.68
2018-08-18T01:16:17.127Z,67.89
2018-08-18T01:18:45.340Z,69.00
2018-08-18T01:21:13.528Z,67.77
2018-08-18T01:23:48.388Z,68.57
2018-08-18T01:26:16.625Z,67.84
2018-08-18T01:28:44.829Z,68.42
2018-08-18T01:31:23.537Z,67.96
2018-08-18T01:33:51.736Z,68.08
2018-08-18T01:36:19.953Z,68.75
2018-08-18T01:38:48.140Z,69.35
2018-08-18T01:41:19.983Z,68.53
2018-08-18T01:43:54.551Z,69.13
2018-08-18T01:46:22.712Z,68.71
2018-08-18T01:48:50.940Z,69.17
2018-08-18T01:51:22.592Z,68.80
2018-08-18T01:53:50.953Z,69.41
2018-08-18T01:56:20.140Z,69.31
2018-08-18T01:58:48.360Z,68.78
2018-08-18T02:01:16.552Z,69.22
2018-08-18T02:03:44.773Z,69.25
2018-08-18T02:06:12.987Z,69.64
2018-08-18T02:08:55.512Z,68.32
2018-08-18T02:11:25.548Z,69.05
2018-08-18T02:13:54.852Z,68.85
2018-08-18T02:16:24.277Z,68.31
2018-08-18T02:18:52.568Z,68.36
2018-08-18T02:21:30.698Z,68.64
2018-08-18T02:24:02.449Z,68.60
2018-08-18T02:26:31.041Z,68.25
2018-08-18T02:28:59.438Z,69.08
2018-08-18T02:31:27.668Z,69.18
2018-08-18T02:33:56.528Z,68.63
2018-08-18T02:36:25.241Z,68.14
2018-08-18T02:38:57.380Z,69.08
2018-08-18T02:41:27.436Z,69.01
2018-08-18T02:43:56.236Z,68.76
2018-08-18T02:46:28.936Z,68.39
2018-08-18T02:48:57.173Z,69.22
2018-08-18T02:51:25.388Z,69.21
2018-08-18T02:53:53.610Z,69.12
2018-08-18T02:56:25.309Z,69.22
2018-08-18T02:59:00.744Z,68.75
2018-08-18T03:01:35.352Z,68.33
2018-08-18T03:04:05.897Z,68.25
2018-08-18T03:06:40.741Z,68.52
2018-08-18T03:09:10.257Z,69.22
2018-08-18T03:11:40.444Z,69.47
2018-08-18T03:14:09.094Z,68.41
2018-08-18T03:16:38.806Z,69.06
2018-08-18T03:19:07.037Z,68.02
2018-08-18T03:21:42.341Z,69.14
2018-08-18T03:24:19.549Z,69.34
2018-08-18T03:26:50.087Z,68.96
2018-08-18T03:29:18.894Z,69.25
2018-08-18T03:31:47.790Z,68.98
2018-08-18T03:34:16.290Z,68.11
2018-08-18T03:36:46.208Z,69.11
2018-08-18T03:39:22.452Z,68.61
2018-08-18T03:41:51.979Z,68.84
2018-08-18T03:44:20.237Z,68.71
2018-08-18T03:46:48.457Z,69.14
2018-08-18T03:49:16.669Z,69.17
2018-08-18T03:51:53.152Z,69.03
2018-08-18T03:54:21.415Z,68.22
2018-08-18T03:56:50.044Z,69.34
2018-08-18T03:59:18.248Z,68.97
2018-08-18T04:01:51.188Z,69.54
2018-08-18T04:04:23.512Z,68.98
2018-08-18T04:06:52.920Z,68.72
2018-08-18T04:09:24.305Z,68.13
2018-08-18T04:11:52.986Z,68.40
2018-08-18T04:14:25.386Z,68.44
2018-08-18T04:16:53.587Z,69.26
2018-08-18T04:19:22.347Z,68.81
2018-08-18T04:21:51.996Z,69.49
2018-08-18T04:24:20.297Z,68.89
2018-08-18T04:26:49.984Z,68.37
2018-08-18T04:29:20.556Z,68.32
2018-08-18T04:31:48.875Z,69.14
2018-08-18T04:34:17.088Z,68.63
2018-08-18T04:36:45.301Z,69.52
2018-08-18T04:39:14.076Z,69.65
2018-08-18T04:41:42.794Z,68.84
2018-08-18T04:44:11.053Z,68.53
2018-08-18T04:46:39.204Z,68.22
2018-08-18T04:49:07.428Z,68.43
2018-08-18T04:51:35.645Z,68.55
2018-08-18T04:54:04.448Z,68.55
2018-08-18T04:56:32.725Z,68.58
2018-08-18T04:59:00.932Z,68.95
2018-08-18T05:01:29.164Z,69.59
2018-08-18T05:04:13.572Z,68.42
2018-08-18T05:06:43.100Z,68.23
2018-08-18T05:09:13.013Z,68.71
2018-08-18T05:11:41.348Z,68.43
2018-08-18T05:14:09.490Z,69.17
2018-08-18T05:16:37.713Z,69.44
2018-08-18T05:19:06.033Z,68.74
2018-08-18T05:21:34.272Z,69.25
2018-08-18T05:24:20.270Z,69.51
2018-08-18T05:26:48.693Z,69.04
2018-08-18T05:29:16.940Z,69.24
2018-08-18T05:31:45.196Z,68.82
2018-08-18T05:34:13.418Z,69.05
2018-08-18T05:36:41.721Z,70.09
2018-08-18T05:39:10.181Z,69.65
2018-08-18T05:41:38.388Z,70.47
2018-08-18T05:44:06.686Z,70.04
2018-08-18T05:46:34.900Z,68.97
2018-08-18T05:49:19.692Z,69.18
2018-08-18T05:51:49.431Z,69.43
2018-08-18T05:54:26.806Z,69.96
2018-08-18T05:56:55.036Z,69.64
2018-08-18T05:59:23.532Z,70.33
2018-08-18T06:01:51.765Z,70.02
2018-08-18T06:04:21.304Z,69.64
2018-08-18T06:06:50.360Z,70.35
2018-08-18T06:09:19.656Z,69.81
2018-08-18T06:11:47.909Z,70.67
2018-08-18T06:14:16.540Z,70.66
2018-08-18T06:16:45.248Z,70.37
2018-08-18T06:19:13.500Z,70.18
2018-08-18T06:21:41.745Z,70.46
2018-08-18T06:24:10.204Z,69.72
2018-08-18T06:26:38.485Z,70.03
2018-08-18T06:29:06.775Z,70.95
2018-08-18T06:32:09.985Z,70.86
2018-08-18T06:34:38.361Z,69.93
2018-08-18T06:37:06.549Z,70.71
2018-08-18T06:39:51.860Z,69.88
2018-08-18T06:42:31.261Z,71.31
2018-08-18T06:44:59.465Z,70.96
2018-08-18T06:47:27.697Z,69.80
2018-08-18T06:49:55.972Z,69.83
2018-08-18T06:52:24.225Z,69.67
2018-08-18T06:54:53.148Z,69.89
2018-08-18T06:57:32.736Z,70.04
2018-08-18T07:00:07.215Z,71.27
2018-08-18T07:02:35.409Z,70.58
2018-08-18T07:05:03.676Z,70.48
2018-08-18T07:07:32.654Z,69.27
2018-08-18T07:10:15.024Z,68.78
2018-08-18T07:12:45.620Z,68.59
2018-08-18T07:15:18.628Z,68.66
2018-08-18T07:17:47.698Z,68.40
2018-08-18T07:20:15.922Z,68.36
2018-08-18T07:22:44.128Z,67.79
2018-08-18T07:25:12.769Z,68.41
2018-08-18T07:27:41.131Z,66.92
2018-08-18T07:30:09.331Z,67.10
2018-08-18T07:32:37.565Z,67.48
2018-08-18T07:35:06.027Z,68.26
2018-08-18T07:37:40.505Z,67.16
2018-08-18T07:40:08.932Z,68.22
2018-08-18T07:42:37.260Z,67.40
2018-08-18T07:45:05.488Z,66.28
2018-08-18T07:47:34.648Z,65.63
2018-08-18T07:50:04.860Z,66.09
2018-08-18T07:52:33.285Z,66.43
2018-08-18T07:55:01.537Z,66.68
2018-08-18T07:57:30.055Z,65.34
2018-08-18T08:00:02.048Z,65.13
2018-08-18T08:02:30.616Z,65.53
2018-08-18T08:04:59.836Z,66.01
2018-08-18T08:07:28.231Z,65.62
2018-08-18T08:09:57.808Z,66.05
2018-08-18T08:12:26.396Z,63.99
2018-08-18T08:14:54.577Z,65.55
2018-08-18T08:17:22.781Z,65.91
2018-08-18T08:19:51.017Z,67.05
2018-08-18T08:22:19.221Z,64.78
2018-08-18T08:24:47.445Z,65.63
2018-08-18T08:27:15.692Z,64.63
2018-08-18T08:29:43.941Z,65.80
2018-08-18T08:32:12.169Z,65.11
2018-08-18T08:34:44.720Z,65.28
2018-08-18T08:37:14.046Z,65.15
2018-08-18T08:39:42.961Z,65.35
2018-08-18T08:42:12.184Z,64.57
2018-08-18T08:44:41.397Z,62.57
2018-08-18T08:47:12.526Z,63.60
2018-08-18T08:49:40.781Z,61.93
2018-08-18T08:52:09.016Z,62.70
2018-08-18T08:54:38.400Z,62.70
2018-08-18T08:57:08.228Z,61.90
2018-08-18T08:59:37.589Z,62.73
2018-08-18T09:02:06.693Z,61.23
2018-08-18T09:04:35.441Z,61.16
2018-08-18T09:07:05.748Z,60.29
2018-08-18T09:09:34.549Z,60.68
2018-08-18T09:12:05.113Z,60.39
2018-08-18T09:14:33.366Z,59.73
2018-08-18T09:17:01.612Z,59.75
2018-08-18T09:19:29.848Z,60.17
2018-08-18T09:22:02.264Z,60.72
2018-08-18T09:24:31.376Z,58.07
2018-08-18T09:27:03.877Z,58.46
2018-08-18T09:29:39.040Z,59.36
2018-08-18T09:32:07.286Z,58.89
2018-08-18T09:34:40.640Z,58.34
2018-08-18T09:37:08.869Z,57.63
2018-08-18T09:39:37.081Z,58.77
2018-08-18T09:42:07.984Z,58.90
2018-08-18T09:44:40.284Z,58.62
2018-08-18T09:47:08.556Z,58.53
2018-08-18T09:49:36.816Z,58.90
2018-08-18T09:52:05.676Z,58.11
2018-08-18T09:54:33.904Z,57.38
2018-08-18T09:57:02.161Z,57.56
2018-08-18T09:59:30.672Z,56.61
2018-08-18T10:01:58.937Z,56.24
2018-08-18T10:04:27.177Z,56.96
2018-08-18T10:06:56.041Z,58.43
2018-08-18T10:09:24.641Z,57.22
2018-08-18T10:11:52.989Z,57.09
2018-08-18T10:14:21.224Z,56.68
2018-08-18T10:16:49.715Z,55.42
2018-08-18T10:19:17.925Z,54.85
2018-08-18T10:21:46.931Z,54.92
2018-08-18T10:24:15.172Z,54.05
2018-08-18T10:26:49.608Z,55.20
2018-08-18T10:29:22.273Z,55.00
2018-08-18T10:31:52.563Z,53.50
2018-08-18T10:34:21.964Z,54.42
2018-08-18T10:36:55.996Z,54.48
2018-08-18T10:39:24.225Z,53.25
2018-08-18T10:41:59.887Z,52.32
2018-08-18T10:44:28.151Z,51.81
2018-08-18T10:47:10.953Z,50.82
2018-08-18T10:49:50.456Z,51.56
2018-08-18T10:52:30.986Z,50.91
2018-08-18T10:55:02.868Z,48.93
2018-08-18T10:57:43.429Z,47.13
2018-08-18T11:00:13.589Z,48.07
2018-08-18T11:02:43.460Z,47.79
2018-08-18T11:05:12.055Z,46.28
2018-08-18T11:07:40.335Z,47.58
2018-08-18T11:10:09.185Z,46.72
2018-08-18T11:12:38.996Z,44.61
2018-08-18T11:15:12.108Z,43.99
2018-08-18T11:17:40.424Z,43.56
2018-08-18T11:20:13.902Z,44.14
2018-08-18T11:23:14.145Z,43.68
2018-08-18T11:25:48.612Z,44.81
2018-08-18T11:28:17.439Z,44.25
2018-08-18T11:30:45.666Z,43.30
2018-08-18T11:33:30.337Z,41.90
2018-08-18T11:35:58.573Z,41.82
2018-08-18T11:38:26.788Z,41.67
2018-08-18T11:40:54.993Z,39.63
2018-08-18T11:43:23.365Z,38.01
2018-08-18T11:45:51.564Z,38.81
2018-08-18T11:48:21.032Z,38.65
2018-08-18T11:50:50.097Z,39.36
2018-08-18T11:53:18.318Z,40.22
2018-08-18T11:55:46.616Z,41.46
2018-08-18T11:58:17.075Z,40.42
2018-08-18T12:00:46.609Z,41.67
2018-08-18T12:03:16.608Z,41.35
2018-08-18T12:05:57.216Z,42.11
2018-08-18T12:08:26.764Z,42.14
2018-08-18T12:10:56.472Z,42.85
2018-08-18T12:13:30.623Z,42.88
2018-08-18T12:16:07.956Z,41.33
2018-08-18T12:18:38.269Z,41.74
2018-08-18T12:21:06.568Z,42.41
2018-08-18T12:23:35.837Z,41.12
2018-08-18T12:26:06.913Z,41.47
2018-08-18T12:28:40.417Z,40.42
2018-08-18T12:31:10.641Z,41.75
2018-08-18T12:33:38.877Z,40.51
2018-08-18T12:36:07.223Z,40.76
2018-08-18T12:38:35.621Z,43.06
2018-08-18T12:41:04.628Z,41.79
2018-08-18T12:43:38.909Z,41.27
2018-08-18T12:46:11.892Z,42.10
2018-08-18T12:48:41.340Z,41.21
2018-08-18T12:51:10.784Z,39.72
2018-08-18T12:53:44.272Z,40.19
2018-08-18T12:56:13.651Z,40.19
2018-08-18T12:58:42.098Z,40.41
2018-08-18T13:01:10.400Z,40.42
2018-08-18T13:03:38.643Z,41.33
2018-08-18T13:06:07.564Z,40.01
2018-08-18T13:08:35.768Z,39.67
2018-08-18T13:11:04.033Z,39.82
2018-08-18T13:13:32.272Z,40.10
2018-08-18T13:16:00.512Z,39.97
2018-08-18T13:18:28.781Z,40.32
2018-08-18T13:20:57.057Z,39.06
2018-08-18T13:23:26.512Z,38.98
2018-08-18T13:25:54.917Z,39.36
2018-08-18T13:28:23.400Z,38.70
2018-08-18T13:30:51.633Z,39.53
2018-08-18T13:33:19.863Z,40.13
2018-08-18T13:35:49.593Z,39.75
2018-08-18T13:38:29.860Z,38.06
2018-08-18T13:40:58.125Z,38.78
2018-08-18T13:43:43.756Z,37.55
2018-08-18T13:46:15.964Z,35.55
2018-08-18T13:48:49.415Z,35.28
2018-08-18T13:51:17.905Z,35.86
2018-08-18T13:53:50.659Z,35.84
2018-08-18T13:56:19.284Z,36.55
2018-08-18T13:58:50.066Z,36.57
2018-08-18T14:01:28.497Z,35.70
2018-08-18T14:03:56.794Z,34.90
2018-08-18T14:06:25.005Z,35.35
2018-08-18T14:08:57.585Z,35.31
2018-08-18T14:11:26.584Z,35.33
2018-08-18T14:13:54.816Z,34.74
2018-08-18T14:16:23.136Z,36.24
2018-08-18T14:18:51.384Z,37.14
2018-08-18T14:21:19.619Z,36.21
2018-08-18T14:23:47.848Z,37.13
2018-08-18T14:26:16.118Z,38.26
2018-08-18T14:28:44.345Z,38.00
2018-08-18T14:31:12.592Z,36.74
2018-08-18T14:33:40.844Z,36.63
2018-08-18T14:36:12.652Z,37.71
2018-08-18T14:38:42.464Z,38.87
2018-08-18T14:41:10.756Z,38.46
2018-08-18T14:43:40.981Z,37.63
2018-08-18T14:46:11.794Z,36.72
2018-08-18T14:48:40.184Z,37.28
2018-08-18T14:51:08.839Z,37.04
2018-08-18T14:53:40.791Z,35.85
2018-08-18T14:56:09.002Z,35.71
2018-08-18T14:58:37.398Z,35.13
2018-08-18T15:01:10.274Z,35.38
2018-08-18T15:03:38.532Z,35.12
2018-08-18T15:06:06.772Z,36.56
2018-08-18T15:08:35.019Z,36.39
2018-08-18T15:11:03.235Z,36.41
2018-08-18T15:13:31.512Z,36.35
2018-08-18T15:15:59.750Z,36.37
2018-08-18T15:18:27.956Z,36.79
2018-08-18T15:20:56.200Z,37.29
2018-08-18T15:23:24.413Z,37.56
2018-08-18T15:25:52.634Z,38.20
2018-08-18T15:28:21.453Z,38.54
2018-08-18T15:30:51.061Z,38.26
2018-08-18T15:33:22.020Z,37.74
2018-08-18T15:35:50.238Z,37.70
2018-08-18T15:38:18.585Z,38.17
2018-08-18T15:40:46.742Z,37.69
2018-08-18T15:43:14.977Z,39.02
2018-08-18T15:45:58.104Z,38.12
2018-08-18T15:48:26.601Z,37.97
2018-08-18T15:50:54.826Z,38.17
2018-08-18T15:53:42.531Z,37.38
2018-08-18T15:56:10.815Z,37.15
2018-08-18T15:58:39.152Z,37.12
2018-08-18T16:01:07.469Z,37.14
2018-08-18T16:03:35.664Z,37.27
2018-08-18T16:06:03.944Z,37.12
2018-08-18T16:08:32.161Z,36.25
2018-08-18T16:11:00.344Z,35.22
2018-08-18T16:13:28.576Z,34.78
2018-08-18T16:15:56.813Z,34.67
2018-08-18T16:18:25.028Z,33.91
2018-08-18T16:20:53.225Z,32.80
2018-08-18T16:23:24.257Z,32.01
2018-08-18T16:25:52.888Z,31.91
2018-08-18T16:28:26.137Z,29.27
2018-08-18T16:30:54.341Z,30.00
2018-08-18T16:33:22.552Z,29.54
2018-08-18T16:35:50.789Z,31.42
2018-08-18T16:38:19.116Z,30.83
2018-08-18T16:40:47.340Z,31.00
2018-08-18T16:43:15.872Z,29.79
2018-08-18T16:45:44.102Z,30.57
2018-08-18T16:48:13.350Z,31.19
2018-08-18T16:50:42.268Z,31.33
2018-08-18T16:53:11.698Z,31.46
2018-08-18T16:55:41.301Z,33.63
2018-08-18T16:58:09.696Z,32.81
2018-08-18T17:01:03.766Z,34.04
2018-08-18T17:03:33.421Z,34.80
2018-08-18T17:06:02.824Z,34.70
2018-08-18T17:08:31.551Z,35.33
2018-08-18T17:10:59.828Z,35.04
2018-08-18T17:13:30.269Z,34.86
2018-08-18T17:15:58.510Z,34.79
2018-08-18T17:18:26.744Z,35.57
2018-08-18T17:20:58.925Z,35.25
2018-08-18T17:23:28.823Z,35.77
2018-08-18T17:25:57.024Z,35.92
2018-08-18T17:28:25.377Z,35.51
2018-08-18T17:30:53.905Z,36.25
2018-08-18T17:33:26.504Z,36.47
2018-08-18T17:35:54.800Z,36.44
2018-08-18T17:38:23.280Z,36.79
2018-08-18T17:40:51.496Z,37.50
2018-08-18T17:43:20.678Z,38.18
2018-08-18T17:46:03.368Z,38.56
2018-08-18T17:48:38.304Z,38.59
2018-08-18T17:51:06.772Z,38.63
2018-08-18T17:53:35.929Z,39.02
2018-08-18T17:56:04.992Z,38.52
2018-08-18T17:58:33.220Z,38.68
2018-08-18T18:01:01.968Z,39.84
2018-08-18T18:03:30.208Z,40.60
2018-08-18T18:05:58.436Z,40.79
2018-08-18T18:08:26.660Z,41.41
2018-08-18T18:10:54.974Z,42.35
2018-08-18T18:13:25.940Z,41.77
2018-08-18T18:15:54.229Z,42.49
2018-08-18T18:18:23.432Z,44.17
2018-08-18T18:20:52.972Z,43.00
2018-08-18T18:23:22.784Z,42.73
2018-08-18T18:25:51.013Z,43.98
2018-08-18T18:28:19.252Z,44.24
2018-08-18T18:30:48.497Z,44.81
2018-08-18T18:33:16.723Z,45.39
2018-08-18T18:35:44.984Z,45.76
2018-08-18T18:38:13.281Z,46.77
2018-08-18T18:40:42.865Z,46.77
2018-08-18T18:45:38.416Z,47.59
2018-08-18T18:48:07.696Z,47.16
2018-08-18T18:50:35.964Z,47.37
2018-08-18T18:53:04.237Z,47.77
2018-08-18T18:55:43.341Z,47.55
2018-08-18T18:58:13.506Z,48.09
2018-08-18T19:00:54.368Z,47.94
2018-08-18T19:03:22.673Z,48.24
2018-08-18T19:05:50.976Z,47.77
2018-08-18T19:08:21.328Z,47.85
2018-08-18T19:10:49.706Z,48.88
2018-08-18T19:13:17.936Z,49.19
2018-08-18T19:15:46.306Z,49.45
2018-08-18T19:18:14.949Z,50.12
2018-08-18T19:20:43.217Z,50.27
2018-08-18T19:23:15.332Z,51.05
2018-08-18T19:25:44.713Z,51.47
2018-08-18T19:28:15.704Z,51.82
2018-08-18T19:30:43.941Z,51.51
2018-08-18T19:33:13.376Z,52.59
2018-08-18T19:35:44.320Z,53.06
2018-08-18T19:38:12.949Z,53.51
2018-08-18T19:40:42.363Z,53.28
2018-08-18T19:43:14.013Z,53.31
2018-08-18T19:45:42.272Z,53.18
2018-08-18T19:48:11.529Z,54.04
2018-08-18T19:51:17.364Z,55.15
2018-08-18T19:53:45.584Z,55.43
2018-08-18T19:56:13.946Z,55.46
2018-08-18T19:58:42.150Z,54.95
2018-08-18T20:01:10.392Z,56.19
2018-08-18T20:03:38.600Z,55.72
2018-08-18T20:06:26.409Z,55.75
2018-08-18T20:08:54.710Z,56.06
2018-08-18T20:11:22.925Z,56.21
2018-08-18T20:13:51.141Z,56.33
2018-08-18T20:16:19.350Z,56.28
2018-08-18T20:18:47.575Z,55.97
2018-08-18T20:21:15.782Z,55.89
2018-08-18T20:23:44.028Z,55.77
2018-08-18T20:26:12.228Z,56.04
2018-08-18T20:28:40.449Z,55.17
2018-08-18T20:31:08.686Z,55.44
2018-08-18T20:33:36.890Z,56.16
2018-08-18T20:36:05.168Z,56.08
2018-08-18T20:38:38.400Z,56.19
2018-08-18T20:41:06.745Z,57.23
2018-08-18T20:43:35.042Z,57.24
2018-08-18T20:46:03.340Z,57.80
2018-08-18T20:48:31.552Z,57.81
2018-08-18T20:50:59.745Z,58.13
2018-08-18T20:53:28.266Z,57.23
2018-08-18T20:55:58.605Z,58.00
2018-08-18T20:58:27.273Z,58.78
2018-08-18T21:00:55.548Z,57.76
2018-08-18T21:03:34.448Z,58.89
2018-08-18T21:06:02.723Z,58.48
2018-08-18T21:08:30.944Z,58.81
2018-08-18T21:10:59.181Z,59.09
2018-08-18T21:13:27.454Z,58.45
2018-08-18T21:15:55.624Z,58.55
2018-08-18T21:18:23.868Z,58.54
2018-08-18T21:20:52.147Z,58.55
2018-08-18T21:23:24.089Z,58.97
2018-08-18T21:25:53.401Z,58.53
2018-08-18T21:28:25.501Z,59.18
2018-08-18T21:30:53.691Z,58.73
2018-08-18T21:33:24.692Z,59.05
2018-08-18T21:35:53.273Z,60.18
2018-08-18T21:38:21.556Z,59.13
2018-08-18T21:40:49.760Z,60.09
2018-08-18T21:43:29.232Z,59.33
2018-08-18T21:45:57.432Z,60.34
2018-08-18T21:48:36.977Z,59.70
2018-08-18T21:51:05.208Z,60.84
2018-08-18T21:53:33.424Z,59.82
2018-08-18T21:56:02.048Z,60.99
2018-08-18T21:58:30.277Z,60.83
2018-08-18T22:01:04.860Z,61.02
2018-08-18T22:03:33.127Z,61.07
2018-08-18T22:06:01.293Z,60.86
2018-08-18T22:08:29.513Z,61.62
2018-08-18T22:10:57.817Z,61.62
2018-08-18T22:13:25.992Z,60.94
2018-08-18T22:15:54.481Z,61.86
2018-08-18T22:18:22.716Z,61.93
2018-08-18T22:20:50.928Z,61.32
2018-08-18T22:23:19.141Z,61.96
2018-08-18T22:25:47.367Z,62.27
2018-08-18T22:28:15.631Z,62.21
2018-08-18T22:30:43.829Z,62.33
2018-08-18T22:33:12.090Z,61.79
2018-08-18T22:35:44.424Z,61.81
2018-08-18T22:38:12.656Z,62.63
2018-08-18T22:40:40.876Z,62.54
2018-08-18T22:43:09.156Z,62.60
2018-08-18T22:45:37.372Z,62.38
2018-08-18T22:48:07.040Z,63.27
2018-08-18T22:50:35.249Z,63.12
2018-08-18T22:53:03.480Z,62.31
2018-08-18T22:55:31.694Z,62.84
2018-08-18T22:58:01.159Z,63.04
2018-08-18T23:00:29.633Z,62.06
2018-08-18T23:02:57.848Z,62.16
2018-08-18T23:05:26.180Z,62.99
2018-08-18T23:07:55.840Z,62.93
2018-08-18T23:10:27.724Z,62.19
2018-08-18T23:12:55.984Z,62.66
2018-08-18T23:15:24.232Z,62.90
2018-08-18T23:17:52.448Z,62.94
2018-08-18T23:20:20.696Z,62.57
2018-08-18T23:22:55.348Z,62.69
2018-08-18T23:25:25.024Z,64.03
2018-08-18T23:27:53.625Z,63.13
2018-08-18T23:30:27.180Z,63.15
2018-08-18T23:32:55.413Z,62.73
2018-08-18T23:35:25.337Z,63.07
2018-08-18T23:37:53.925Z,62.97
2018-08-18T23:40:22.161Z,63.22
2018-08-18T23:42:50.372Z,63.34
2018-08-18T23:45:18.608Z,63.43
2018-08-18T23:47:55.876Z,64.58
2018-08-18T23:50:25.314Z,63.35
2018-08-18T23:53:13.268Z,63.34
2018-08-18T23:55:46.500Z,64.24
2018-08-18T23:58:14.770Z,63.54
